createdAt,value
2022-11-26T00:01:25.045Z,2.80
2022-11-26T00:04:40.000Z,2.35
2022-11-26T00:07:43.354Z,2.20
2022-11-26T00:10:46.213Z,3.05
2022-11-26T00:13:49.209Z,3.17
2022-11-26T00:16:52.008Z,2.83
2022-11-26T00:19:56.000Z,3.70
2022-11-26T00:23:01.305Z,3.22
2022-11-26T00:26:04.592Z,2.60
2022-11-26T00:29:10.086Z,3.10
2022-11-26T00:32:16.087Z,3.00
2022-11-26T00:35:20.506Z,3.22
2022-11-26T00:38:23.387Z,3.03
2022-11-26T00:41:30.034Z,2.88
2022-11-26T00:44:33.127Z,3.13
2022-11-26T00:47:36.024Z,2.83
2022-11-26T00:50:43.783Z,2.65
2022-11-26T00:53:47.231Z,2.38
2022-11-26T00:56:50.436Z,3.25
2022-11-26T00:59:53.063Z,1.90
2022-11-26T01:02:56.318Z,2.80
2022-11-26T01:06:00.622Z,2.45
2022-11-26T01:09:04.711Z,2.70
2022-11-26T01:12:08.652Z,2.75
2022-11-26T01:15:11.809Z,2.80
2022-11-26T01:18:15.685Z,2.20
2022-11-26T01:21:20.225Z,2.40
2022-11-26T01:24:22.811Z,2.22
2022-11-26T01:27:25.464Z,2.38
2022-11-26T01:30:30.617Z,2.50
2022-11-26T01:33:33.130Z,2.28
2022-11-26T01:36:37.661Z,3.08
2022-11-26T01:39:40.182Z,2.47
2022-11-26T01:42:44.095Z,2.40
2022-11-26T01:45:46.798Z,2.47
2022-11-26T01:48:50.332Z,2.83
2022-11-26T01:51:57.228Z,2.00
2022-11-26T01:55:00.289Z,2.33
2022-11-26T01:58:03.490Z,2.35
2022-11-26T02:01:06.473Z,2.03
2022-11-26T02:04:12.694Z,2.72
2022-11-26T02:07:16.649Z,1.88
2022-11-26T02:10:19.264Z,2.42
2022-11-26T02:13:22.322Z,2.80
2022-11-26T02:16:30.854Z,3.03
2022-11-26T02:19:42.487Z,3.13
2022-11-26T02:22:59.282Z,3.08
2022-11-26T02:26:19.606Z,2.58
2022-11-26T02:29:24.809Z,2.72
2022-11-26T02:32:30.953Z,3.70
2022-11-26T02:35:35.801Z,3.15
2022-11-26T02:38:38.980Z,2.97
2022-11-26T02:41:42.882Z,3.58
2022-11-26T02:44:46.050Z,3.25
2022-11-26T02:47:51.533Z,3.00
2022-11-26T02:50:56.792Z,3.22
2022-11-26T02:54:00.459Z,3.30
2022-11-26T02:57:04.530Z,3.58
2022-11-26T03:00:07.916Z,3.95
2022-11-26T03:03:22.272Z,3.10
2022-11-26T03:06:26.638Z,2.92
2022-11-26T03:09:39.248Z,2.60
2022-11-26T03:12:41.907Z,3.20
2022-11-26T03:15:44.669Z,2.65
2022-11-26T03:18:48.644Z,2.38
2022-11-26T03:21:51.251Z,2.47
2022-11-26T03:24:53.734Z,2.65
2022-11-26T03:27:56.806Z,2.30
2022-11-26T03:30:59.444Z,2.40
2022-11-26T03:34:03.492Z,2.10
2022-11-26T03:37:06.384Z,2.05
2022-11-26T03:40:09.971Z,1.77
2022-11-26T03:43:12.649Z,2.08
2022-11-26T03:46:15.354Z,1.83
2022-11-26T03:49:20.037Z,1.73
2022-11-26T03:52:22.551Z,1.90
2022-11-26T03:55:25.102Z,2.28
2022-11-26T03:58:27.835Z,1.95
2022-11-26T04:01:30.475Z,2.03
2022-11-26T04:04:34.593Z,1.60
2022-11-26T04:07:37.888Z,1.92
2022-11-26T04:10:41.773Z,1.83
2022-11-26T04:13:45.098Z,1.98
2022-11-26T04:16:48.265Z,1.70
2022-11-26T04:19:52.818Z,2.25
2022-11-26T04:22:55.388Z,2.33
2022-11-26T04:25:58.012Z,2.28
2022-11-26T04:29:00.634Z,2.13
2022-11-26T04:32:03.264Z,2.17
2022-11-26T04:35:08.031Z,1.92
2022-11-26T04:38:10.692Z,2.08
2022-11-26T04:41:13.241Z,2.00
2022-11-26T04:44:15.777Z,2.83
2022-11-26T04:47:18.593Z,2.33
2022-11-26T04:50:22.822Z,2.58
2022-11-26T04:53:25.466Z,3.05
2022-11-26T04:56:28.075Z,2.60
2022-11-26T04:59:30.589Z,3.15
2022-11-26T05:02:33.232Z,3.08
2022-11-26T05:05:37.466Z,2.85
2022-11-26T05:08:40.048Z,3.05
2022-11-26T05:11:42.572Z,3.05
2022-11-26T05:14:45.247Z,2.95
2022-11-26T05:17:47.868Z,2.65
2022-11-26T05:20:51.831Z,2.70
2022-11-26T05:23:54.554Z,2.95
2022-11-26T05:26:57.540Z,2.50
2022-11-26T05:30:00.190Z,2.42
2022-11-26T05:33:02.992Z,2.13
2022-11-26T05:36:07.312Z,2.80
2022-11-26T05:39:09.984Z,2.53
2022-11-26T05:42:12.568Z,2.03
2022-11-26T05:45:16.437Z,2.50
2022-11-26T05:48:19.215Z,2.92
2022-11-26T05:51:23.109Z,2.03
2022-11-26T05:54:25.668Z,2.25
2022-11-26T05:57:28.485Z,2.58
2022-11-26T06:00:31.153Z,2.28
2022-11-26T06:03:33.604Z,2.22
2022-11-26T06:06:37.613Z,2.10
2022-11-26T06:09:40.852Z,2.50
2022-11-26T06:12:43.733Z,2.17
2022-11-26T06:15:46.322Z,2.60
2022-11-26T06:18:48.803Z,2.97
2022-11-26T06:21:52.694Z,2.80
2022-11-26T06:24:55.237Z,2.83
2022-11-26T06:27:57.917Z,2.80
2022-11-26T06:31:00.785Z,2.33
2022-11-26T06:34:03.438Z,3.10
2022-11-26T06:37:07.406Z,2.47
2022-11-26T06:40:11.954Z,2.85
2022-11-26T06:43:14.615Z,2.55
2022-11-26T06:46:20.374Z,3.20
2022-11-26T06:49:23.382Z,2.72
2022-11-26T06:52:28.206Z,2.30
2022-11-26T06:55:34.709Z,2.58
2022-11-26T06:58:37.545Z,2.63
2022-11-26T07:01:40.311Z,2.70
2022-11-26T07:04:43.179Z,2.95
2022-11-26T07:07:47.205Z,2.75
2022-11-26T07:10:49.951Z,2.92
2022-11-26T07:13:53.249Z,3.85
2022-11-26T07:16:56.074Z,3.47
2022-11-26T07:19:58.641Z,3.95
2022-11-26T07:23:04.557Z,3.50
2022-11-26T07:26:08.019Z,3.00
2022-11-26T07:29:10.551Z,3.42
2022-11-26T07:32:13.372Z,3.17
2022-11-26T07:35:16.048Z,3.42
2022-11-26T07:38:20.102Z,3.00
2022-11-26T07:41:22.775Z,3.83
2022-11-26T07:44:25.615Z,4.10
2022-11-26T07:47:28.244Z,3.10
2022-11-26T07:50:30.833Z,2.75
2022-11-26T07:53:35.327Z,3.05
2022-11-26T07:56:38.320Z,3.47
2022-11-26T07:59:41.066Z,3.60
2022-11-26T08:02:43.796Z,2.72
2022-11-26T08:05:46.716Z,3.40
2022-11-26T08:08:51.115Z,3.65
2022-11-26T08:11:53.788Z,4.10
2022-11-26T08:14:56.543Z,3.72
2022-11-26T08:17:59.667Z,4.13
2022-11-26T08:21:02.235Z,4.05
2022-11-26T08:24:06.982Z,4.38
2022-11-26T08:27:09.601Z,4.38
2022-11-26T08:30:14.305Z,4.13
2022-11-26T08:33:17.251Z,4.57
2022-11-26T08:36:19.838Z,4.38
2022-11-26T08:39:23.935Z,4.50
2022-11-26T08:42:26.546Z,4.88
2022-11-26T08:45:29.116Z,4.97
2022-11-26T08:48:32.142Z,5.25
2022-11-26T08:51:34.950Z,6.15
2022-11-26T08:54:44.602Z,6.75
2022-11-26T08:57:48.199Z,6.07
2022-11-26T09:00:50.830Z,5.57
2022-11-26T09:03:54.484Z,4.90
2022-11-26T09:06:56.977Z,5.93
2022-11-26T09:10:01.653Z,5.55
2022-11-26T09:13:04.612Z,4.75
2022-11-26T09:16:07.434Z,4.75
2022-11-26T09:19:10.054Z,4.80
2022-11-26T09:22:13.081Z,4.78
2022-11-26T09:25:17.254Z,4.47
2022-11-26T09:28:20.011Z,5.35
2022-11-26T09:31:22.931Z,4.47
2022-11-26T09:34:25.927Z,4.75
2022-11-26T09:37:28.719Z,4.57
2022-11-26T09:40:41.150Z,5.53
2022-11-26T09:43:53.495Z,4.60
2022-11-26T09:47:16.096Z,5.70
2022-11-26T09:50:21.957Z,4.63
2022-11-26T09:53:26.659Z,5.65
2022-11-26T09:56:32.834Z,4.80
2022-11-26T09:59:38.058Z,5.13
2022-11-26T10:02:40.845Z,4.30
2022-11-26T10:05:48.342Z,4.72
2022-11-26T10:09:08.870Z,5.07
2022-11-26T10:12:25.856Z,5.18
2022-11-26T10:15:33.058Z,5.53
2022-11-26T10:18:41.165Z,4.68
2022-11-26T10:21:58.602Z,5.07
2022-11-26T10:25:03.043Z,5.63
2022-11-26T10:28:31.861Z,5.82
2022-11-26T10:31:35.125Z,5.45
2022-11-26T10:34:40.248Z,5.85
2022-11-26T10:37:42.940Z,5.78
2022-11-26T10:40:46.411Z,6.00
2022-11-26T10:43:51.861Z,6.40
2022-11-26T10:46:55.033Z,6.95
2022-11-26T10:50:39.703Z,7.03
2022-11-26T10:54:09.914Z,6.00
2022-11-26T10:57:14.688Z,7.43
2022-11-26T11:00:44.425Z,6.63
2022-11-26T11:04:10.267Z,6.38
2022-11-26T11:07:28.331Z,6.15
2022-11-26T11:10:31.276Z,7.95
2022-11-26T11:13:45.379Z,7.30
2022-11-26T11:16:50.031Z,7.72
2022-11-26T11:23:39.941Z,6.90
2022-11-26T11:26:47.369Z,6.22
2022-11-26T11:29:51.809Z,6.75
2022-11-26T11:32:58.249Z,6.13
2022-11-26T11:36:15.896Z,6.18
2022-11-26T11:39:31.322Z,5.53
2022-11-26T11:42:35.932Z,5.72
2022-11-26T11:45:41.863Z,4.93
2022-11-26T11:48:52.242Z,4.95
2022-11-26T11:52:02.508Z,4.35
2022-11-26T11:55:12.930Z,4.32
2022-11-26T11:58:22.421Z,4.63
2022-11-26T12:01:40.858Z,4.65
2022-11-26T12:04:55.393Z,4.43
2022-11-26T12:08:02.516Z,4.25
2022-11-26T12:11:11.046Z,5.50
2022-11-26T12:14:18.062Z,4.95
2022-11-26T12:17:29.001Z,4.20
2022-11-26T12:20:40.535Z,5.22
2022-11-26T12:23:49.513Z,5.40
2022-11-26T12:26:57.314Z,5.55
2022-11-26T12:30:02.861Z,5.80
2022-11-26T12:33:21.015Z,5.63
2022-11-26T12:36:28.209Z,5.28
2022-11-26T12:39:37.474Z,5.60
2022-11-26T12:42:55.387Z,5.03
2022-11-26T12:46:04.361Z,4.78
2022-11-26T12:49:10.159Z,5.30
2022-11-26T12:52:22.271Z,5.13
2022-11-26T12:55:33.962Z,5.18
2022-11-26T12:58:45.607Z,5.00
2022-11-26T13:02:10.025Z,5.53
2022-11-26T13:05:18.322Z,5.65
2022-11-26T13:08:28.191Z,5.55
2022-11-26T13:11:36.083Z,5.85
2022-11-26T13:14:42.961Z,6.15
2022-11-26T13:17:47.741Z,6.35
2022-11-26T13:20:58.805Z,4.85
2022-11-26T13:24:19.003Z,4.93
2022-11-26T13:27:28.623Z,5.20
2022-11-26T13:30:49.096Z,4.78
2022-11-26T13:33:59.534Z,5.03
2022-11-26T13:37:14.220Z,5.03
2022-11-26T13:40:29.789Z,5.05
2022-11-26T13:43:55.414Z,4.90
2022-11-26T13:47:01.153Z,5.40
2022-11-26T13:50:06.938Z,5.50
2022-11-26T13:53:14.151Z,5.18
2022-11-26T13:56:20.952Z,5.40
2022-11-26T13:59:28.520Z,6.10
2022-11-26T14:02:42.503Z,5.07
2022-11-26T14:06:13.862Z,5.95
2022-11-26T14:09:31.732Z,5.60
2022-11-26T14:12:53.224Z,5.70
2022-11-26T14:15:58.233Z,6.32
2022-11-26T14:19:03.011Z,5.30
2022-11-26T14:22:06.268Z,6.22
2022-11-26T14:25:10.554Z,6.55
2022-11-26T14:28:13.404Z,6.93
2022-11-26T14:31:17.449Z,6.70
2022-11-26T14:34:24.216Z,6.05
2022-11-26T14:37:28.175Z,7.10
2022-11-26T14:40:31.421Z,6.35
2022-11-26T14:43:35.314Z,6.15
2022-11-26T14:46:38.521Z,5.93
2022-11-26T14:49:43.765Z,5.93
2022-11-26T14:52:47.143Z,5.60
2022-11-26T14:55:50.707Z,6.13
2022-11-26T14:58:58.319Z,6.80
2022-11-26T15:02:02.649Z,6.63
2022-11-26T15:05:16.116Z,6.07
2022-11-26T15:08:20.176Z,5.63
2022-11-26T15:11:22.998Z,5.93
2022-11-26T15:14:29.338Z,5.78
2022-11-26T15:17:33.383Z,6.75
2022-11-26T15:20:37.546Z,6.72
2022-11-26T15:23:41.449Z,5.97
2022-11-26T15:26:46.110Z,6.00
2022-11-26T15:29:50.173Z,5.50
2022-11-26T15:33:00.772Z,5.43
2022-11-26T15:36:05.590Z,6.55
2022-11-26T15:39:23.218Z,7.75
2022-11-26T15:42:28.129Z,6.30
2022-11-26T15:45:35.011Z,7.28
2022-11-26T15:48:54.929Z,6.35
2022-11-26T15:52:00.493Z,7.57
2022-11-26T15:55:13.600Z,7.50
2022-11-26T15:58:20.280Z,6.45
2022-11-26T16:01:25.106Z,5.82
2022-11-26T16:04:39.262Z,6.38
2022-11-26T16:07:56.671Z,6.68
2022-11-26T16:11:06.238Z,6.38
2022-11-26T16:14:29.108Z,6.82
2022-11-26T16:17:31.837Z,6.70
2022-11-26T16:20:34.577Z,6.95
2022-11-26T16:23:38.551Z,7.40
2022-11-26T16:26:54.064Z,7.72
2022-11-26T16:29:57.266Z,6.82
2022-11-26T16:33:00.133Z,7.03
2022-11-26T16:36:03.209Z,7.28
2022-11-26T16:39:07.343Z,5.75
2022-11-26T16:42:14.148Z,7.88
2022-11-26T16:45:17.643Z,7.47
2022-11-26T16:48:23.244Z,6.57
2022-11-26T16:51:25.969Z,6.97
2022-11-26T16:54:29.946Z,8.02
2022-11-26T16:57:32.835Z,6.50
2022-11-26T17:00:36.682Z,7.47
2022-11-26T17:03:39.345Z,7.32
2022-11-26T17:06:43.169Z,8.07
2022-11-26T17:09:47.260Z,6.75
2022-11-26T17:12:50.038Z,8.98
2022-11-26T17:15:52.807Z,6.97
2022-11-26T17:18:55.352Z,8.52
2022-11-26T17:21:58.223Z,8.32
2022-11-26T17:25:02.230Z,6.80
2022-11-26T17:28:06.545Z,7.43
2022-11-26T17:31:09.344Z,8.35
2022-11-26T17:34:12.567Z,8.30
2022-11-26T17:37:16.886Z,7.90
2022-11-26T17:40:22.009Z,11.13
2022-11-26T17:43:24.766Z,12.32
2022-11-26T17:46:27.533Z,12.63
2022-11-26T17:49:30.294Z,13.27
2022-11-26T17:52:32.954Z,11.27
2022-11-26T17:55:37.070Z,8.13
2022-11-26T17:58:40.161Z,7.47
2022-11-26T18:01:42.840Z,7.97
2022-11-26T18:04:45.751Z,7.25
2022-11-26T18:07:49.724Z,8.65
2022-11-26T18:10:53.820Z,8.50
2022-11-26T18:13:59.479Z,8.45
2022-11-26T18:17:02.387Z,8.07
2022-11-26T18:20:05.817Z,8.43
2022-11-26T18:23:09.039Z,8.75
2022-11-26T18:26:17.399Z,8.55
2022-11-26T18:29:20.121Z,7.82
2022-11-26T18:32:22.776Z,7.40
2022-11-26T18:35:25.454Z,8.25
2022-11-26T18:38:31.272Z,7.80
2022-11-26T18:41:35.603Z,8.15
2022-11-26T18:44:38.284Z,8.50
2022-11-26T18:47:41.381Z,7.53
2022-11-26T18:50:44.003Z,8.80
2022-11-26T18:53:46.741Z,7.72
2022-11-26T18:56:50.870Z,8.43
2022-11-26T18:59:53.741Z,8.50
2022-11-26T19:02:56.436Z,8.45
2022-11-26T19:05:59.208Z,8.45
2022-11-26T19:09:02.636Z,9.07
2022-11-26T19:12:07.580Z,10.25
2022-11-26T19:15:13.514Z,8.98
2022-11-26T19:18:16.554Z,8.80
2022-11-26T19:21:19.720Z,10.13
2022-11-26T19:24:22.308Z,9.55
2022-11-26T19:27:26.281Z,8.68
2022-11-26T19:30:29.081Z,9.45
2022-11-26T19:33:32.275Z,11.02
2022-11-26T19:36:35.123Z,9.65
2022-11-26T19:39:38.127Z,10.07
2022-11-26T19:42:42.343Z,9.98
2022-11-26T19:45:45.015Z,9.85
2022-11-26T19:48:48.645Z,10.25
2022-11-26T19:51:51.345Z,10.88
2022-11-26T19:54:54.099Z,10.85
2022-11-26T19:57:58.168Z,9.35
2022-11-26T20:01:00.975Z,10.32
2022-11-26T20:04:05.420Z,10.27
2022-11-26T20:07:08.441Z,9.45
2022-11-26T20:10:11.874Z,10.50
2022-11-26T20:13:16.025Z,8.95
2022-11-26T20:16:20.098Z,9.93
2022-11-26T20:19:22.813Z,9.52
2022-11-26T20:22:27.972Z,9.15
2022-11-26T20:25:33.586Z,9.27
2022-11-26T20:28:37.710Z,9.50
2022-11-26T20:31:41.625Z,9.30
2022-11-26T20:34:45.177Z,9.10
2022-11-26T20:37:47.777Z,11.18
2022-11-26T20:40:50.520Z,9.88
2022-11-26T20:43:58.709Z,9.13
2022-11-26T20:47:02.471Z,9.65
2022-11-26T20:50:06.612Z,10.00
2022-11-26T20:53:09.620Z,10.00
2022-11-26T20:56:14.042Z,11.10
2022-11-26T20:59:18.003Z,9.95
2022-11-26T21:02:20.816Z,8.60
2022-11-26T21:05:24.154Z,9.10
2022-11-26T21:08:26.797Z,10.57
2022-11-26T21:11:29.993Z,10.07
2022-11-26T21:14:34.439Z,9.82
2022-11-26T21:17:37.157Z,9.57
2022-11-26T21:20:40.994Z,10.38
2022-11-26T21:23:44.353Z,9.23
2022-11-26T21:26:47.252Z,10.13
2022-11-26T21:29:51.543Z,9.43
2022-11-26T21:32:54.167Z,8.82
2022-11-26T21:35:56.717Z,8.98
2022-11-26T21:38:59.696Z,9.48
2022-11-26T21:42:02.720Z,8.68
2022-11-26T21:45:07.947Z,8.35
2022-11-26T21:48:10.516Z,8.70
2022-11-26T21:51:14.344Z,8.10
2022-11-26T21:54:17.439Z,9.07
2022-11-26T21:57:20.020Z,8.98
2022-11-26T22:00:24.361Z,8.73
2022-11-26T22:03:27.353Z,8.27
2022-11-26T22:06:29.987Z,8.05
2022-11-26T22:09:32.774Z,8.38
2022-11-26T22:12:35.415Z,8.23
2022-11-26T22:15:41.859Z,8.02
2022-11-26T22:18:45.188Z,8.75
2022-11-26T22:21:47.753Z,8.57
2022-11-26T22:24:50.512Z,8.38
2022-11-26T22:27:54.351Z,7.47
2022-11-26T22:30:58.611Z,7.15
2022-11-26T22:34:02.456Z,7.10
2022-11-26T22:37:07.087Z,7.38
2022-11-26T22:40:10.738Z,8.18
2022-11-26T22:43:13.653Z,8.23
2022-11-26T22:46:18.919Z,7.47
2022-11-26T22:49:22.222Z,7.35
2022-11-26T22:52:25.173Z,7.25
2022-11-26T22:55:27.930Z,6.95
2022-11-26T22:58:31.615Z,7.00
2022-11-26T23:01:37.026Z,7.00
2022-11-26T23:04:39.900Z,6.53
2022-11-26T23:07:42.863Z,6.90
2022-11-26T23:10:45.988Z,7.28
2022-11-26T23:13:49.596Z,6.53
2022-11-26T23:16:53.703Z,7.30
2022-11-26T23:19:56.406Z,6.22
2022-11-26T23:22:59.386Z,6.55
2022-11-26T23:26:02.508Z,6.45
2022-11-26T23:29:05.857Z,6.40
2022-11-26T23:32:09.884Z,5.78
2022-11-26T23:35:13.026Z,6.05
2022-11-26T23:38:15.720Z,6.32
2022-11-26T23:41:18.689Z,5.82
2022-11-26T23:44:21.653Z,6.05
2022-11-26T23:47:26.023Z,6.13
2022-11-26T23:50:28.918Z,6.43
2022-11-26T23:53:31.674Z,5.93
2022-11-26T23:56:34.972Z,6.82
2022-11-26T23:59:37.779Z,6.28
